Time;durP1;ratioP1;P1;durP2;ratioP2;P2;SDS_P1;SDS_P2;PMS_P1;PMS_P2;Temp;Humidity;BMP_temperature;BMP_pressure;BME280_temperature;BME280_humidity;BME280_pressure;Samples;Min_cycle;Max_cycle;Signal;HPM_P1;HPM_P2
2022/07/31 00:00:21;;;;;;;5.88;2.20;;;19.00;99.90;;;;;;5096017;28;20165;-74
2022/07/31 00:02:47;;;;;;;7.43;2.47;;;19.10;99.90;;;;;;5071073;28;20456;-74
2022/07/31 00:05:13;;;;;;;7.45;2.28;;;19.10;99.90;;;;;;5076279;28;20044;-74
2022/07/31 00:07:39;;;;;;;6.00;2.17;;;19.10;99.90;;;;;;5077114;28;20058;-75
2022/07/31 00:10:05;;;;;;;5.65;2.40;;;19.10;99.90;;;;;;5077833;28;20035;-74
2022/07/31 00:12:31;;;;;;;6.22;2.17;;;19.20;99.90;;;;;;5074327;28;20052;-74
2022/07/31 00:14:56;;;;;;;6.32;2.17;;;19.20;99.90;;;;;;5092298;28;20036;-74
2022/07/31 00:17:22;;;;;;;7.47;2.35;;;19.20;99.90;;;;;;5094561;28;20048;-76
2022/07/31 00:19:48;;;;;;;6.03;2.38;;;19.10;99.90;;;;;;5094578;28;20105;-75
2022/07/31 00:22:14;;;;;;;6.18;2.30;;;19.10;99.90;;;;;;5095019;28;20047;-76
2022/07/31 00:24:39;;;;;;;6.70;2.35;;;19.10;99.90;;;;;;5095371;28;20039;-76
2022/07/31 00:27:05;;;;;;;6.18;2.30;;;19.10;99.90;;;;;;5076975;28;20074;-74
2022/07/31 00:29:31;;;;;;;6.43;2.40;;;19.10;99.90;;;;;;5082532;28;20480;-75
2022/07/31 00:31:57;;;;;;;5.85;2.40;;;19.10;99.90;;;;;;5077364;28;20058;-75
2022/07/31 00:34:22;;;;;;;7.10;2.50;;;19.00;99.90;;;;;;5078902;28;20056;-76
2022/07/31 00:36:48;;;;;;;7.40;2.65;;;19.00;99.90;;;;;;5094428;28;20054;-77
2022/07/31 00:39:14;;;;;;;7.43;2.55;;;18.90;99.90;;;;;;5065358;28;20084;-75
2022/07/31 00:41:42;;;;;;;4.70;2.40;;;18.90;99.90;;;;;;5043712;28;20205;-75
2022/07/31 00:44:11;;;;;;;6.60;2.60;;;18.90;99.90;;;;;;5076891;28;20403;-75
2022/07/31 00:46:37;;;;;;;5.97;2.53;;;18.80;99.90;;;;;;5062317;28;20404;-76
2022/07/31 00:49:06;;;;;;;6.25;2.70;;;18.80;99.90;;;;;;5075467;28;20055;-75
2022/07/31 00:51:31;;;;;;;6.63;2.67;;;18.80;99.90;;;;;;5045468;28;20488;-75
2022/07/31 00:53:57;;;;;;;6.22;2.63;;;18.80;99.90;;;;;;5076501;28;20063;-75
2022/07/31 00:56:24;;;;;;;9.00;2.50;;;18.80;99.90;;;;;;5059766;28;20040;-75
2022/07/31 00:58:50;;;;;;;7.30;2.63;;;18.70;99.90;;;;;;5059690;28;20093;-76
2022/07/31 01:01:15;;;;;;;6.72;2.47;;;18.70;99.90;;;;;;5066001;28;20488;-73
2022/07/31 01:03:41;;;;;;;6.43;2.28;;;18.70;99.90;;;;;;5052282;28;20059;-74
2022/07/31 01:06:08;;;;;;;7.30;2.60;;;18.70;99.90;;;;;;5056625;28;20048;-74
2022/07/31 01:08:34;;;;;;;5.65;2.35;;;18.60;99.90;;;;;;5074323;28;20052;-75
2022/07/31 01:11:11;;;;;;;5.38;2.50;;;18.60;99.90;;;;;;5076281;28;20121;-74
2022/07/31 01:13:44;;;;;;;6.30;2.60;;;18.60;99.90;;;;;;5072437;28;20045;-74
2022/07/31 01:16:11;;;;;;;6.57;2.38;;;18.60;99.90;;;;;;5074990;28;20129;-74
2022/07/31 01:18:39;;;;;;;5.95;2.58;;;18.50;99.90;;;;;;5058569;28;20486;-72
2022/07/31 01:21:08;;;;;;;6.55;2.30;;;18.50;99.90;;;;;;5062042;28;20071;-74
2022/07/31 01:24:11;;;;;;;5.63;2.30;;;18.50;99.90;;;;;;5075711;28;20048;-74
2022/07/31 01:26:52;;;;;;;;;;;18.40;99.90;;;;;;5065299;28;20123;-75
2022/07/31 01:29:23;;;;;;;6.50;2.10;;;18.30;99.90;;;;;;5075158;28;19942;-74
2022/07/31 01:32:12;;;;;;;5.40;2.50;;;18.30;99.90;;;;;;5088610;28;20045;-73
2022/07/31 01:34:44;;;;;;;6.88;2.22;;;18.20;99.90;;;;;;5072320;28;20063;-75
2022/07/31 01:37:33;;;;;;;6.90;2.25;;;18.20;99.90;;;;;;5075783;28;20425;-74
2022/07/31 01:40:04;;;;;;;6.40;2.30;;;18.20;99.90;;;;;;5061245;28;20052;-75
2022/07/31 01:42:33;;;;;;;6.15;2.22;;;18.20;99.90;;;;;;5093316;28;20390;-74
2022/07/31 01:45:00;;;;;;;6.30;2.50;;;18.20;99.90;;;;;;5053958;28;20048;-75
2022/07/31 01:47:28;;;;;;;5.18;2.25;;;18.20;99.90;;;;;;5066072;28;20079;-74
2022/07/31 01:49:57;;;;;;;4.90;2.33;;;18.20;99.90;;;;;;5075443;28;20059;-76
2022/07/31 01:52:25;;;;;;;5.65;2.40;;;18.10;99.90;;;;;;5065339;28;20048;-75
2022/07/31 01:54:53;;;;;;;5.28;2.35;;;18.10;99.90;;;;;;5057444;28;20053;-74
2022/07/31 01:57:22;;;;;;;5.10;2.25;;;18.00;99.90;;;;;;5073342;28;20094;-77
2022/07/31 01:59:50;;;;;;;5.30;2.60;;;18.00;99.90;;;;;;5052664;28;20132;-74
2022/07/31 02:02:18;;;;;;;4.65;2.20;;;17.90;99.90;;;;;;5067530;28;20415;-76
2022/07/31 02:04:45;;;;;;;7.72;2.60;;;17.90;99.90;;;;;;5074264;28;20104;-74
2022/07/31 02:07:13;;;;;;;6.53;2.65;;;17.80;99.90;;;;;;5075492;28;20071;-74
2022/07/31 02:09:41;;;;;;;6.07;2.33;;;17.90;99.90;;;;;;5075189;28;20048;-73
2022/07/31 02:12:08;;;;;;;6.82;2.60;;;17.80;99.90;;;;;;5075582;28;20048;-74
2022/07/31 02:14:35;;;;;;;6.38;2.80;;;17.80;99.90;;;;;;5074853;28;20052;-76
2022/07/31 02:17:01;;;;;;;5.40;2.25;;;17.90;99.90;;;;;;5047543;28;20102;-74
2022/07/31 02:19:28;;;;;;;7.65;2.70;;;17.90;99.90;;;;;;5071296;28;20040;-74
2022/07/31 02:21:54;;;;;;;5.50;2.58;;;17.90;99.90;;;;;;5093049;28;20463;-74
2022/07/31 02:24:21;;;;;;;6.95;2.70;;;17.80;99.90;;;;;;5058003;28;20048;-74
2022/07/31 02:26:47;;;;;;;6.07;2.60;;;17.90;99.90;;;;;;5075605;28;20144;-73
2022/07/31 02:29:16;;;;;;;5.90;2.88;;;17.90;99.90;;;;;;5072326;28;20541;-74
2022/07/31 02:31:43;;;;;;;6.72;2.90;;;17.90;99.90;;;;;;5063086;28;20441;-73
2022/07/31 02:34:11;;;;;;;6.10;3.00;;;17.90;99.90;;;;;;5051683;28;20415;-74
2022/07/31 02:36:37;;;;;;;6.20;2.65;;;17.90;99.90;;;;;;5071709;28;20119;-73
2022/07/31 02:39:04;;;;;;;6.03;2.80;;;17.90;99.90;;;;;;5054650;28;20259;-73
2022/07/31 02:41:30;;;;;;;5.57;2.75;;;17.90;99.90;;;;;;5070858;28;20111;-73
2022/07/31 02:43:57;;;;;;;6.38;3.10;;;17.90;99.90;;;;;;5074625;28;20079;-73
2022/07/31 02:46:23;;;;;;;6.75;3.00;;;18.00;99.90;;;;;;5074508;28;20105;-74
2022/07/31 02:48:50;;;;;;;5.40;2.63;;;18.00;99.90;;;;;;5054466;28;20036;-73
2022/07/31 02:51:17;;;;;;;8.90;2.95;;;18.00;99.90;;;;;;5067543;28;20048;-74
2022/07/31 02:53:43;;;;;;;4.95;2.45;;;18.00;99.90;;;;;;5059781;28;20036;-73
2022/07/31 02:56:09;;;;;;;6.50;2.55;;;18.00;99.90;;;;;;5092867;28;20097;-74
2022/07/31 02:58:41;;;;;;;6.32;2.80;;;18.10;99.90;;;;;;5060224;28;20056;-72
2022/07/31 03:01:07;;;;;;;7.47;2.60;;;18.10;99.90;;;;;;5065247;28;20056;-73
2022/07/31 03:03:33;;;;;;;6.55;2.80;;;18.20;99.90;;;;;;5055151;28;20471;-72
2022/07/31 03:05:59;;;;;;;6.57;2.95;;;18.30;99.90;;;;;;5074783;28;20493;-74
2022/07/31 03:08:26;;;;;;;7.25;2.55;;;18.30;99.90;;;;;;5057778;28;20090;-74
2022/07/31 03:10:52;;;;;;;7.22;2.90;;;18.40;99.90;;;;;;5074458;28;20047;-72
2022/07/31 03:13:19;;;;;;;7.07;2.67;;;18.40;99.90;;;;;;5092589;28;20538;-73
2022/07/31 03:15:46;;;;;;;6.53;3.00;;;18.40;99.90;;;;;;5092101;28;20036;-71
2022/07/31 03:18:13;;;;;;;8.32;3.13;;;18.50;99.90;;;;;;5073998;28;20075;-71
2022/07/31 03:20:42;;;;;;;8.77;3.00;;;18.50;99.90;;;;;;5074288;28;20138;-73
2022/07/31 03:23:10;;;;;;;8.15;2.83;;;18.50;99.90;;;;;;5074128;28;20044;-74
2022/07/31 03:25:36;;;;;;;6.55;2.92;;;18.50;99.90;;;;;;5074132;28;20119;-73
2022/07/31 03:28:02;;;;;;;6.10;2.72;;;18.50;99.90;;;;;;5073739;28;20052;-74
2022/07/31 03:30:27;;;;;;;5.90;2.88;;;18.40;99.90;;;;;;5074912;28;20044;-74
2022/07/31 03:32:54;;;;;;;6.10;3.10;;;18.50;99.90;;;;;;5054870;28;20467;-72
2022/07/31 03:35:20;;;;;;;6.65;2.90;;;18.40;99.90;;;;;;5054204;28;20064;-72
2022/07/31 03:37:46;;;;;;;6.60;3.00;;;18.40;99.90;;;;;;5055569;28;20055;-74
2022/07/31 03:40:12;;;;;;;6.38;3.10;;;18.50;99.90;;;;;;5086167;28;20036;-74
2022/07/31 03:42:38;;;;;;;6.97;2.88;;;18.40;99.90;;;;;;5071469;28;20044;-77
2022/07/31 03:45:06;;;;;;;7.07;3.00;;;18.40;99.90;;;;;;5061610;28;20039;-74
2022/07/31 03:47:31;;;;;;;6.72;3.08;;;18.40;99.90;;;;;;5082867;28;20128;-74
2022/07/31 03:50:00;;;;;;;7.55;3.05;;;18.40;99.90;;;;;;5057232;28;20124;-75
2022/07/31 03:52:27;;;;;;;7.63;3.10;;;18.40;99.90;;;;;;5057491;28;20052;-73
2022/07/31 03:54:54;;;;;;;7.35;2.95;;;18.50;99.90;;;;;;5057527;28;20101;-73
2022/07/31 03:57:20;;;;;;;8.73;3.53;;;18.50;99.90;;;;;;5057759;28;20047;-76
2022/07/31 03:59:48;;;;;;;8.23;3.30;;;18.50;99.90;;;;;;5077955;28;20052;-74
2022/07/31 04:02:14;;;;;;;6.97;3.20;;;18.50;99.90;;;;;;5077305;28;20482;-71
2022/07/31 04:04:42;;;;;;;6.53;3.28;;;18.40;99.90;;;;;;5094655;28;20044;-74
2022/07/31 04:07:08;;;;;;;6.22;3.33;;;18.50;99.90;;;;;;5074972;28;20093;-74
2022/07/31 04:09:33;;;;;;;7.18;3.33;;;18.40;99.90;;;;;;5095491;28;20402;-74
2022/07/31 04:11:59;;;;;;;9.98;3.50;;;18.40;99.90;;;;;;5076823;28;20044;-71
2022/07/31 04:14:25;;;;;;;7.38;3.40;;;18.50;99.90;;;;;;5077096;28;20048;-73
2022/07/31 04:16:51;;;;;;;7.93;3.40;;;18.50;99.90;;;;;;5060750;28;20174;-73
2022/07/31 04:19:16;;;;;;;7.72;3.38;;;18.40;99.90;;;;;;5093760;28;20096;-73
2022/07/31 04:21:42;;;;;;;7.05;3.50;;;18.40;99.90;;;;;;5077458;28;20040;-73
2022/07/31 04:24:08;;;;;;;8.05;3.70;;;18.40;99.90;;;;;;5094182;28;20051;-76
2022/07/31 04:26:35;;;;;;;8.10;3.60;;;18.40;99.90;;;;;;5077619;28;20392;-73
2022/07/31 04:29:00;;;;;;;6.68;3.50;;;18.50;99.90;;;;;;5062615;28;20086;-73
2022/07/31 04:31:26;;;;;;;6.93;3.40;;;18.50;99.90;;;;;;5089077;28;20072;-74
2022/07/31 04:33:52;;;;;;;7.90;3.53;;;18.50;99.90;;;;;;5092633;28;20047;-73
2022/07/31 04:36:17;;;;;;;8.65;3.65;;;18.60;99.90;;;;;;5060157;28;20058;-73
2022/07/31 04:38:43;;;;;;;6.05;3.58;;;18.60;99.90;;;;;;5066964;28;20480;-74
2022/07/31 04:41:09;;;;;;;7.95;3.67;;;18.60;99.90;;;;;;5056555;28;20045;-74
2022/07/31 04:43:34;;;;;;;8.15;3.72;;;18.70;99.90;;;;;;5082640;28;20046;-75
2022/07/31 04:46:00;;;;;;;9.35;3.90;;;18.80;99.90;;;;;;5094889;28;20411;-74
2022/07/31 04:48:26;;;;;;;9.13;3.72;;;18.90;99.90;;;;;;5071969;28;20052;-74
2022/07/31 04:50:51;;;;;;;7.07;3.55;;;18.90;99.90;;;;;;5094412;28;20051;-72
2022/07/31 04:53:17;;;;;;;7.25;3.28;;;18.90;99.90;;;;;;5092495;28;20055;-77
2022/07/31 04:56:31;;;;;;;7.40;3.30;;;18.90;99.90;;;;;;5076902;28;20055;-73
2022/07/31 04:58:28;;;;;;;8.38;3.72;;;18.90;99.90;;;;;;5091851;28;20055;-73
2022/07/31 05:00:54;;;;;;;7.05;3.45;;;18.90;99.90;;;;;;5059464;28;20048;-73
2022/07/31 05:03:20;;;;;;;8.40;3.50;;;18.90;99.90;;;;;;5057933;28;20157;-74
2022/07/31 05:05:49;;;;;;;6.75;3.50;;;18.90;99.90;;;;;;5094030;28;20043;-73
2022/07/31 05:08:14;;;;;;;7.57;3.33;;;18.90;99.90;;;;;;5073692;28;20479;-75
2022/07/31 05:13:24;;;;;;;7.00;3.47;;;18.90;99.90;;;;;;5048955;28;20210;-74
2022/07/31 05:15:49;;;;;;;6.93;3.35;;;18.90;99.90;;;;;;5091907;28;20122;-74
2022/07/31 05:18:15;;;;;;;7.10;3.35;;;18.90;99.90;;;;;;5090380;28;20471;-73
2022/07/31 05:20:41;;;;;;;7.82;3.50;;;18.90;99.90;;;;;;5073788;28;20054;-75
2022/07/31 05:23:07;;;;;;;8.80;3.65;;;18.90;99.90;;;;;;5075522;28;20076;-73
2022/07/31 05:25:32;;;;;;;8.20;3.38;;;19.00;99.90;;;;;;5093132;28;20044;-75
2022/07/31 05:27:58;;;;;;;6.35;3.30;;;19.00;99.90;;;;;;5092747;28;20040;-73
2022/07/31 05:30:23;;;;;;;7.03;3.40;;;19.00;99.90;;;;;;5043352;28;20055;-75
2022/07/31 05:32:49;;;;;;;7.20;3.55;;;19.10;99.90;;;;;;5070886;28;20053;-74
2022/07/31 05:35:15;;;;;;;7.00;3.28;;;19.10;99.90;;;;;;5083427;28;20479;-73
2022/07/31 05:37:41;;;;;;;7.68;3.50;;;19.20;99.90;;;;;;5092010;28;20479;-74
2022/07/31 05:40:07;;;;;;;6.88;3.38;;;19.20;99.90;;;;;;5039378;28;20525;-74
2022/07/31 05:42:32;;;;;;;6.97;3.67;;;19.30;99.90;;;;;;5068645;28;20123;-74
2022/07/31 05:44:58;;;;;;;7.10;3.40;;;19.30;99.90;;;;;;5055674;28;20124;-73
2022/07/31 05:47:24;;;;;;;6.90;3.50;;;19.30;99.90;;;;;;5084147;28;20056;-75
2022/07/31 05:49:49;;;;;;;6.85;3.10;;;19.30;99.90;;;;;;5093549;28;20487;-72
2022/07/31 05:52:18;;;;;;;9.32;3.33;;;19.30;99.90;;;;;;5075826;28;20398;-75
2022/07/31 05:54:44;;;;;;;5.40;2.95;;;19.30;99.90;;;;;;5092337;28;20050;-73
2022/07/31 05:57:10;;;;;;;6.97;3.72;;;19.40;99.90;;;;;;5069277;28;20056;-77
2022/07/31 05:59:36;;;;;;;7.25;3.42;;;19.40;99.90;;;;;;5090864;28;20449;-74
2022/07/31 06:02:02;;;;;;;6.03;3.50;;;19.40;99.90;;;;;;5089790;28;20089;-75
2022/07/31 06:04:27;;;;;;;6.38;3.40;;;19.40;99.90;;;;;;5069781;28;20048;-75
2022/07/31 06:06:53;;;;;;;8.13;3.58;;;19.50;99.90;;;;;;5071678;28;20044;-74
2022/07/31 06:09:19;;;;;;;7.65;3.78;;;19.50;99.90;;;;;;5056278;28;20051;-75
2022/07/31 06:11:44;;;;;;;5.95;3.25;;;19.50;99.90;;;;;;5051315;28;20049;-75
2022/07/31 06:14:10;;;;;;;5.95;3.42;;;19.60;99.90;;;;;;5085635;28;20036;-76
2022/07/31 06:16:36;;;;;;;7.60;3.42;;;19.60;99.90;;;;;;5042340;28;20051;-74
2022/07/31 06:19:01;;;;;;;6.90;3.25;;;19.70;99.90;;;;;;5083424;28;20062;-75
2022/07/31 06:21:27;;;;;;;6.38;3.30;;;19.80;99.90;;;;;;5064722;28;20392;-75
2022/07/31 06:23:53;;;;;;;6.45;3.33;;;19.80;99.90;;;;;;5077339;28;20079;-75
2022/07/31 06:26:18;;;;;;;7.75;3.70;;;19.90;99.90;;;;;;5057725;28;20037;-74
2022/07/31 06:28:44;;;;;;;7.70;3.63;;;19.90;99.90;;;;;;5082785;28;20474;-75
2022/07/31 06:31:19;;;;;;;6.95;3.70;;;20.00;99.90;;;;;;5069439;28;20114;-75
2022/07/31 06:33:46;;;;;;;6.47;3.47;;;20.00;99.90;;;;;;5064860;28;20491;-76
2022/07/31 06:36:11;;;;;;;7.75;3.53;;;20.00;99.90;;;;;;5069317;28;20056;-75
2022/07/31 06:38:37;;;;;;;7.55;3.40;;;20.00;99.90;;;;;;5063604;28;20051;-75
2022/07/31 06:41:03;;;;;;;7.88;3.50;;;20.00;99.90;;;;;;5086147;28;20052;-75
2022/07/31 06:43:28;;;;;;;5.93;3.30;;;19.90;99.90;;;;;;5053898;28;20032;-74
2022/07/31 06:45:54;;;;;;;8.02;3.20;;;20.00;99.90;;;;;;5071521;28;20043;-74
2022/07/31 06:48:20;;;;;;;7.22;3.28;;;20.00;99.90;;;;;;5069527;28;20423;-76
2022/07/31 06:50:46;;;;;;;7.85;3.05;;;20.00;99.90;;;;;;5071140;28;20048;-74
2022/07/31 06:53:12;;;;;;;6.30;2.92;;;20.10;99.90;;;;;;5069438;28;20056;-75
2022/07/31 06:55:38;;;;;;;5.57;3.22;;;20.10;99.90;;;;;;5070289;28;20406;-75
2022/07/31 06:58:04;;;;;;;5.88;3.22;;;20.20;99.90;;;;;;5070064;28;20048;-74
2022/07/31 07:00:30;;;;;;;6.40;3.55;;;20.20;99.90;;;;;;5070348;28;20054;-76
2022/07/31 07:02:56;;;;;;;7.15;3.67;;;20.30;99.90;;;;;;5067152;28;20048;-74
2022/07/31 07:05:22;;;;;;;6.32;3.05;;;20.30;99.90;;;;;;5070267;28;20386;-79
2022/07/31 07:07:47;;;;;;;7.05;3.33;;;20.30;99.90;;;;;;5068971;28;20056;-75
2022/07/31 07:10:13;;;;;;;8.43;3.53;;;20.40;99.90;;;;;;5052960;28;20131;-75
2022/07/31 07:12:39;;;;;;;7.15;3.00;;;20.50;99.90;;;;;;5085228;28;20048;-74
2022/07/31 07:15:05;;;;;;;6.88;3.30;;;20.60;99.90;;;;;;5072350;28;20134;-75
2022/07/31 07:17:31;;;;;;;6.22;3.42;;;20.60;99.90;;;;;;5052999;28;20044;-75
2022/07/31 07:19:56;;;;;;;7.45;3.50;;;20.60;99.90;;;;;;5080069;28;20044;-75
2022/07/31 07:22:22;;;;;;;6.70;3.45;;;20.70;99.90;;;;;;5065079;28;20480;-74
2022/07/31 07:24:48;;;;;;;6.15;3.30;;;20.80;99.90;;;;;;5061326;28;20052;-76
2022/07/31 07:27:13;;;;;;;6.95;3.25;;;20.80;99.90;;;;;;5080730;28;20063;-75
2022/07/31 07:29:39;;;;;;;8.05;3.35;;;20.90;99.90;;;;;;5086475;28;20040;-77
2022/07/31 07:32:05;;;;;;;7.65;3.72;;;21.00;99.90;;;;;;5072042;28;20044;-77
2022/07/31 07:34:31;;;;;;;8.43;3.60;;;21.00;99.90;;;;;;5074914;28;20518;-76
2022/07/31 07:36:56;;;;;;;9.07;3.83;;;21.00;99.90;;;;;;5075619;28;20075;-75
2022/07/31 07:39:22;;;;;;;7.93;3.88;;;21.10;99.90;;;;;;5090239;28;20040;-75
2022/07/31 07:41:48;;;;;;;8.07;3.58;;;21.10;99.90;;;;;;5077152;28;20048;-75
2022/07/31 07:44:14;;;;;;;7.05;3.78;;;21.10;99.90;;;;;;5093526;28;20044;-74
2022/07/31 07:46:39;;;;;;;8.07;3.90;;;21.10;99.90;;;;;;5075210;28;20071;-75
2022/07/31 07:49:05;;;;;;;9.50;4.55;;;21.10;99.90;;;;;;5053082;28;20066;-74
2022/07/31 07:51:31;;;;;;;8.23;3.90;;;21.10;99.90;;;;;;5077028;28;20052;-74
2022/07/31 07:53:57;;;;;;;6.78;3.88;;;21.20;99.90;;;;;;5077459;28;20076;-74
2022/07/31 07:56:23;;;;;;;7.20;3.92;;;21.20;99.90;;;;;;5089113;28;20508;-74
2022/07/31 07:58:49;;;;;;;9.30;4.18;;;21.20;99.90;;;;;;5070836;28;20135;-76
2022/07/31 08:01:15;;;;;;;7.32;4.20;;;21.20;99.90;;;;;;5077876;28;20072;-74
2022/07/31 08:03:41;;;;;;;8.88;4.50;;;21.30;99.90;;;;;;5074710;28;20044;-75
2022/07/31 08:06:07;;;;;;;8.27;4.80;;;21.30;99.90;;;;;;5075857;28;20048;-75
2022/07/31 08:08:32;;;;;;;9.63;4.50;;;21.40;99.90;;;;;;5075756;28;20465;-74
2022/07/31 08:10:59;;;;;;;7.07;4.50;;;21.40;99.90;;;;;;5076233;28;20101;-74
2022/07/31 08:13:25;;;;;;;8.90;5.30;;;21.50;99.90;;;;;;5077359;28;20056;-74
2022/07/31 08:15:51;;;;;;;8.77;5.35;;;21.60;99.90;;;;;;5077545;28;20039;-75
2022/07/31 08:18:17;;;;;;;9.00;5.10;;;21.70;99.90;;;;;;5076328;28;20080;-74
2022/07/31 08:20:42;;;;;;;10.80;6.10;;;22.00;99.90;;;;;;5076410;28;20047;-75
2022/07/31 08:23:08;;;;;;;8.38;5.90;;;22.10;99.90;;;;;;5094989;28;20479;-74
2022/07/31 08:25:34;;;;;;;10.68;6.68;;;22.30;99.90;;;;;;5076679;28;20048;-74
2022/07/31 08:27:59;;;;;;;9.48;6.20;;;22.40;99.90;;;;;;5059681;28;20441;-74
2022/07/31 08:30:25;;;;;;;9.98;6.60;;;22.40;99.90;;;;;;5077081;28;20044;-74
2022/07/31 08:32:51;;;;;;;9.77;6.32;;;22.40;99.90;;;;;;5072675;28;20048;-74
2022/07/31 08:35:18;;;;;;;11.70;6.82;;;22.50;99.90;;;;;;5066161;28;20410;-74
2022/07/31 08:37:44;;;;;;;11.20;7.32;;;22.50;99.80;;;;;;5078834;28;20055;-76
2022/07/31 08:40:10;;;;;;;10.20;7.20;;;22.50;99.50;;;;;;5082480;28;20077;-74
2022/07/31 08:42:36;;;;;;;9.55;7.10;;;22.40;99.70;;;;;;5060335;28;20048;-74
2022/07/31 08:45:06;;;;;;;10.75;7.53;;;22.40;99.80;;;;;;5094629;28;20479;-74
2022/07/31 08:47:34;;;;;;;9.38;6.57;;;22.50;99.90;;;;;;5076094;28;20058;-74
2022/07/31 08:50:02;;;;;;;10.75;7.63;;;22.60;99.90;;;;;;5064583;28;20093;-75
2022/07/31 08:52:31;;;;;;;10.10;7.63;;;22.60;99.90;;;;;;5085544;28;20072;-77
2022/07/31 08:54:58;;;;;;;9.57;7.00;;;22.60;99.90;;;;;;5076397;28;20052;-75
2022/07/31 08:57:25;;;;;;;10.00;7.82;;;22.60;99.90;;;;;;5076591;28;20051;-74
2022/07/31 08:59:52;;;;;;;10.20;6.95;;;22.60;99.90;;;;;;5076179;28;20540;-72
2022/07/31 09:02:18;;;;;;;10.18;6.95;;;22.60;99.90;;;;;;5059954;28;20498;-75
2022/07/31 09:04:44;;;;;;;9.90;6.07;;;22.70;99.90;;;;;;5076231;28;20087;-75
2022/07/31 09:07:14;;;;;;;8.35;5.60;;;22.80;99.90;;;;;;5059015;28;20059;-74
2022/07/31 09:09:43;;;;;;;9.30;6.15;;;22.80;99.70;;;;;;5076670;28;20479;-74
2022/07/31 09:12:08;;;;;;;9.63;5.57;;;22.90;99.30;;;;;;5075827;28;20055;-75
2022/07/31 09:14:34;;;;;;;10.82;6.35;;;22.90;99.20;;;;;;5072426;28;20040;-73
2022/07/31 09:17:02;;;;;;;9.40;6.05;;;22.70;99.50;;;;;;5087777;28;20513;-74
2022/07/31 09:19:39;;;;;;;8.20;5.85;;;22.60;99.90;;;;;;5058461;28;20040;-75
2022/07/31 09:22:05;;;;;;;9.20;6.07;;;22.60;99.90;;;;;;5086871;28;20047;-74
2022/07/31 09:24:33;;;;;;;8.18;5.90;;;22.50;99.90;;;;;;5072790;28;20045;-75
2022/07/31 09:27:08;;;;;;;10.88;6.25;;;22.40;99.90;;;;;;5067393;28;20157;-75
2022/07/31 09:29:41;;;;;;;10.80;6.00;;;22.30;99.90;;;;;;5061353;28;20520;-75
2022/07/31 09:32:25;;;;;;;10.00;6.60;;;22.20;99.90;;;;;;5059641;28;20052;-76
2022/07/31 09:34:51;;;;;;;9.38;6.78;;;22.20;99.90;;;;;;5058154;28;20058;-75
2022/07/31 09:37:20;;;;;;;10.43;6.70;;;22.00;99.90;;;;;;5093617;28;20056;-75
2022/07/31 09:39:50;;;;;;;10.40;6.85;;;21.90;99.90;;;;;;5071222;28;20040;-76
2022/07/31 09:42:16;;;;;;;9.48;7.47;;;21.80;99.90;;;;;;5055698;28;20055;-77
2022/07/31 09:44:44;;;;;;;10.82;7.50;;;21.80;99.90;;;;;;5038824;28;20119;-74
2022/07/31 09:47:25;;;;;;;10.85;8.15;;;21.60;99.90;;;;;;5065217;28;20052;-74
2022/07/31 09:49:57;;;;;;;10.00;6.88;;;21.60;99.90;;;;;;5071728;28;20480;-75
2022/07/31 09:52:24;;;;;;;9.32;7.40;;;21.50;99.90;;;;;;5065997;28;20066;-76
2022/07/31 09:55:19;;;;;;;12.65;8.48;;;21.50;99.90;;;;;;5075268;28;20051;-76
2022/07/31 09:57:54;;;;;;;11.77;9.20;;;21.40;99.90;;;;;;5058325;28;20182;-76
2022/07/31 10:00:22;;;;;;;10.95;8.02;;;21.40;99.90;;;;;;5074812;28;20123;-77
2022/07/31 10:02:49;;;;;;;12.32;8.60;;;21.40;99.90;;;;;;5074187;28;20048;-77
2022/07/31 10:05:16;;;;;;;13.68;8.93;;;21.50;99.90;;;;;;5075093;28;20092;-77
2022/07/31 10:07:43;;;;;;;11.88;9.00;;;21.50;99.90;;;;;;5075188;28;20051;-76
2022/07/31 10:10:10;;;;;;;10.90;8.90;;;21.50;99.90;;;;;;5058609;28;20048;-76
2022/07/31 10:12:41;;;;;;;10.68;7.60;;;21.60;99.90;;;;;;5058174;28;20101;-75
2022/07/31 10:15:10;;;;;;;11.57;9.15;;;21.70;99.90;;;;;;5075034;28;20483;-75
2022/07/31 10:17:39;;;;;;;11.90;9.23;;;21.80;99.90;;;;;;5073954;28;20062;-75
2022/07/31 10:20:06;;;;;;;11.15;9.23;;;21.90;99.90;;;;;;5075013;28;20123;-75
2022/07/31 10:22:44;;;;;;;11.55;9.68;;;21.90;99.90;;;;;;5057693;28;20036;-73
2022/07/31 10:25:15;;;;;;;12.45;9.75;;;22.00;99.90;;;;;;5075218;28;20094;-72
2022/07/31 10:27:43;;;;;;;13.55;10.30;;;21.90;99.90;;;;;;5074484;28;20383;-74
2022/07/31 10:30:09;;;;;;;12.20;10.15;;;21.90;99.90;;;;;;5074989;28;20486;-73
2022/07/31 10:32:35;;;;;;;13.98;12.15;;;21.80;99.90;;;;;;5073856;28;20130;-73
2022/07/31 10:35:03;;;;;;;14.65;11.10;;;21.80;99.90;;;;;;5074601;28;20058;-72
2022/07/31 10:37:46;;;;;;;11.82;10.63;;;21.80;99.90;;;;;;5075089;28;20050;-73
2022/07/31 10:40:43;;;;;;;11.77;9.70;;;22.00;99.90;;;;;;5080844;28;20120;-71
2022/07/31 10:43:29;;;;;;;12.05;9.15;;;22.10;99.90;;;;;;5057401;28;20139;-71
2022/07/31 10:45:55;;;;;;;12.38;10.45;;;22.30;99.90;;;;;;5075174;28;20098;-73
2022/07/31 10:48:22;;;;;;;12.05;10.00;;;22.40;99.90;;;;;;5074545;28;20052;-73
2022/07/31 10:50:59;;;;;;;12.38;9.95;;;22.50;99.90;;;;;;5081885;28;20439;-74
2022/07/31 10:53:25;;;;;;;12.75;9.90;;;22.60;99.90;;;;;;5094488;28;20043;-73
2022/07/31 10:56:00;;;;;;;11.90;9.65;;;22.70;99.90;;;;;;5099652;28;20052;-73
2022/07/31 10:58:26;;;;;;;12.10;9.63;;;22.80;99.90;;;;;;5077683;28;20098;-71
2022/07/31 11:01:02;;;;;;;10.82;9.73;;;22.90;99.90;;;;;;5089357;28;20055;-72
2022/07/31 11:03:45;;;;;;;12.80;9.52;;;22.90;99.90;;;;;;5080165;28;20083;-72
2022/07/31 11:06:12;;;;;;;13.50;10.00;;;22.90;99.90;;;;;;5081633;28;20122;-72
2022/07/31 11:08:43;;;;;;;12.02;9.88;;;22.90;99.90;;;;;;5063712;28;20116;-72
2022/07/31 11:11:10;;;;;;;11.00;9.73;;;22.90;99.90;;;;;;5081642;28;20068;-72
2022/07/31 11:13:56;;;;;;;13.55;10.13;;;22.90;99.90;;;;;;5064453;28;20083;-73
2022/07/31 11:16:22;;;;;;;13.75;10.20;;;22.70;99.90;;;;;;5053087;28;20105;-73
2022/07/31 11:18:59;;;;;;;13.32;9.77;;;22.70;99.90;;;;;;5063326;28;20387;-76
2022/07/31 11:21:40;;;;;;;11.82;9.38;;;22.70;99.90;;;;;;5073223;28;20510;-73
2022/07/31 11:24:13;;;;;;;11.70;10.23;;;22.60;99.90;;;;;;5076049;28;20459;-73
2022/07/31 11:26:56;;;;;;;13.57;10.80;;;22.60;99.90;;;;;;5064062;28;20052;-74
2022/07/31 11:29:30;;;;;;;12.95;11.15;;;22.50;99.90;;;;;;5066198;28;21478;-74
2022/07/31 11:32:19;;;;;;;13.65;11.82;;;22.50;99.90;;;;;;5081407;28;20052;-74
2022/07/31 11:34:50;;;;;;;15.10;11.57;;;22.40;99.90;;;;;;5097317;28;20040;-73
2022/07/31 11:37:19;;;;;;;13.98;11.48;;;22.40;99.90;;;;;;5086133;28;20060;-77
2022/07/31 11:39:45;;;;;;;14.82;13.23;;;22.40;99.90;;;;;;5079040;28;20036;-74
2022/07/31 11:42:12;;;;;;;16.30;12.90;;;22.30;99.90;;;;;;5082802;28;20044;-74
2022/07/31 11:44:38;;;;;;;16.63;14.07;;;22.30;99.90;;;;;;5098278;28;20101;-74
2022/07/31 11:47:04;;;;;;;16.77;14.23;;;22.30;99.90;;;;;;5081087;28;20048;-74
2022/07/31 11:49:34;;;;;;;17.98;13.75;;;22.20;99.90;;;;;;5097226;28;20054;-74
2022/07/31 11:52:01;;;;;;;16.70;14.57;;;22.20;99.90;;;;;;5068362;28;20495;-73
2022/07/31 11:54:27;;;;;;;17.00;15.07;;;22.20;99.90;;;;;;5067672;28;20400;-72
2022/07/31 11:56:56;;;;;;;17.80;15.27;;;22.20;99.90;;;;;;5083383;28;20039;-72
2022/07/31 11:59:33;;;;;;;20.23;18.10;;;22.10;99.90;;;;;;5068958;28;20083;-72
2022/07/31 12:02:11;;;;;;;22.45;20.13;;;22.00;99.90;;;;;;5088807;28;20044;-72
2022/07/31 12:04:38;;;;;;;20.00;17.77;;;21.80;99.90;;;;;;5040431;28;20098;-72
2022/07/31 12:07:08;;;;;;;21.17;18.88;;;21.70;99.90;;;;;;5072943;28;20403;-74
2022/07/31 12:09:35;;;;;;;16.92;15.13;;;21.60;99.90;;;;;;5065646;28;20482;-73
2022/07/31 12:12:02;;;;;;;19.65;17.60;;;21.40;99.90;;;;;;5040837;28;20087;-71
2022/07/31 12:14:36;;;;;;;17.90;16.00;;;21.20;99.90;;;;;;5077413;28;20047;-70
2022/07/31 12:17:05;;;;;;;22.63;18.83;;;21.10;99.90;;;;;;5077340;28;20082;-69
2022/07/31 12:19:36;;;;;;;21.88;19.58;;;21.00;99.90;;;;;;5059903;28;20048;-70
2022/07/31 12:22:15;;;;;;;21.35;18.80;;;20.90;99.90;;;;;;5060898;28;20060;-69
2022/07/31 12:24:42;;;;;;;21.67;19.48;;;20.80;99.90;;;;;;5081531;28;20559;-71
2022/07/31 12:27:08;;;;;;;22.15;19.95;;;20.70;99.90;;;;;;5077196;28;20044;-70
2022/07/31 12:29:37;;;;;;;24.15;21.65;;;20.70;99.90;;;;;;5072321;28;20056;-68
2022/07/31 12:32:05;;;;;;;25.27;22.67;;;20.60;99.90;;;;;;5068359;28;20051;-68
2022/07/31 12:34:33;;;;;;;23.63;21.23;;;20.60;99.90;;;;;;5075754;28;20392;-67
2022/07/31 12:37:08;;;;;;;23.55;21.15;;;20.60;99.90;;;;;;5067391;28;20084;-67
2022/07/31 12:39:36;;;;;;;25.20;22.67;;;20.60;99.90;;;;;;5073197;28;20044;-66
2022/07/31 12:42:02;;;;;;;27.30;24.58;;;20.60;99.90;;;;;;5068086;28;20159;-66
2022/07/31 12:44:28;;;;;;;24.33;21.95;;;20.50;99.90;;;;;;5053770;28;20479;-66
2022/07/31 12:46:54;;;;;;;28.17;25.23;;;20.60;99.90;;;;;;5064121;28;20055;-68
2022/07/31 12:49:19;;;;;;;26.42;23.73;;;20.50;99.90;;;;;;5062882;28;20040;-67